Time;durP1;ratioP1;P1;durP2;ratioP2;P2;SDS_P1;SDS_P2;PMS_P1;PMS_P2;Temp;Humidity;BMP_temperature;BMP_pressure;BME280_temperature;BME280_humidity;BME280_pressure;Samples;Min_cycle;Max_cycle;Signal;HPM_P1;HPM_P2
2022/04/14 00:01:19;;;;;;;;;12.50;11.50;;;;;16.43;53.65;101549.41;4996715;28;45893;-63
2022/04/14 00:03:45;;;;;;;;;17.00;14.00;;;;;16.48;53.59;101551.97;4999319;28;45331;-63
2022/04/14 00:06:10;;;;;;;;;14.25;12.50;;;;;16.42;53.69;101556.50;5000720;28;45309;-64
2022/04/14 00:08:35;;;;;;;;;14.00;13.50;;;;;16.42;53.52;101555.63;5000660;28;45427;-64
2022/04/14 00:11:01;;;;;;;;;13.75;12.00;;;;;16.39;53.73;101564.53;4995746;28;45264;-65
2022/04/14 00:13:26;;;;;;;;;13.25;13.00;;;;;16.34;53.73;101563.78;4987493;28;45523;-65
2022/04/14 00:15:51;;;;;;;;;13.75;13.75;;;;;16.30;53.65;101564.78;4999525;28;46147;-65
2022/04/14 00:18:17;;;;;;;;;13.25;12.75;;;;;16.29;53.65;101562.16;5005557;28;45286;-65
2022/04/14 00:20:42;;;;;;;;;15.75;14.50;;;;;16.26;53.94;101573.69;5000301;28;45793;-63
2022/04/14 00:23:08;;;;;;;;;12.25;12.25;;;;;16.23;53.70;101569.34;5000448;28;45545;-65
2022/04/14 00:25:33;;;;;;;;;15.50;14.75;;;;;16.21;53.71;101570.28;5000030;28;45292;-63
2022/04/14 00:27:59;;;;;;;;;14.75;12.75;;;;;16.18;53.67;101558.00;5000211;28;45178;-65
2022/04/14 00:30:25;;;;;;;;;12.50;10.75;;;;;16.12;53.67;101559.94;5000118;28;45469;-65
2022/04/14 00:32:50;;;;;;;;;14.00;13.00;;;;;16.12;53.80;101558.13;5000357;28;45412;-65
2022/04/14 00:35:15;;;;;;;;;13.25;12.25;;;;;16.11;53.99;101563.47;5000137;28;46973;-64
2022/04/14 00:37:41;;;;;;;;;19.25;15.00;;;;;16.08;53.72;101564.44;5000348;28;45291;-64
2022/04/14 00:40:07;;;;;;;;;14.25;13.50;;;;;16.05;53.87;101560.06;5000021;28;45330;-62
2022/04/14 00:42:32;;;;;;;;;13.50;13.00;;;;;16.02;54.11;101560.13;5000346;28;45326;-64
2022/04/14 00:44:59;;;;;;;;;14.25;13.50;;;;;15.98;54.08;101553.16;4999775;28;45294;-65
2022/04/14 00:47:24;;;;;;;;;17.25;14.75;;;;;15.98;54.12;101566.41;4998676;28;45354;-65
2022/04/14 00:49:50;;;;;;;;;17.50;14.50;;;;;15.93;53.94;101555.06;4999844;28;45341;-64
2022/04/14 00:52:16;;;;;;;;;24.25;21.25;;;;;15.92;53.83;101567.47;4999767;28;45546;-65
2022/04/14 00:54:41;;;;;;;;;25.50;22.25;;;;;15.90;53.93;101569.25;4999576;28;46226;-64
2022/04/14 00:57:08;;;;;;;;;21.50;20.50;;;;;15.88;54.49;101563.13;5000222;28;45261;-64
2022/04/14 00:59:34;;;;;;;;;19.00;18.75;;;;;15.87;54.20;101558.75;4999983;28;45217;-65
2022/04/14 01:01:59;;;;;;;;;28.75;26.75;;;;;15.85;54.59;101562.34;4999739;28;45485;-65
2022/04/14 01:04:26;;;;;;;;;26.75;24.25;;;;;15.84;54.43;101560.59;4999596;28;45277;-64
2022/04/14 01:06:51;;;;;;;;;30.00;28.00;;;;;15.82;54.68;101560.59;4981240;28;45508;-64
2022/04/14 01:09:20;;;;;;;;;30.50;29.50;;;;;15.75;54.44;101551.91;4993951;28;45673;-65
2022/04/14 01:11:48;;;;;;;;;30.75;25.50;;;;;15.78;54.36;101558.91;4999904;28;45235;-64
2022/04/14 01:14:30;;;;;;;;;32.00;29.50;;;;;15.76;54.27;101566.03;4999491;28;45477;-65
2022/04/14 01:17:06;;;;;;;;;29.00;29.00;;;;;15.73;54.65;101560.78;4999488;28;45274;-65
2022/04/14 01:19:32;;;;;;;;;27.75;25.75;;;;;15.73;54.60;101561.66;4985369;28;45260;-65
2022/04/14 01:22:11;;;;;;;;;34.00;29.25;;;;;15.72;54.43;101564.34;4998037;28;46047;-65
2022/04/14 01:24:38;;;;;;;;;28.00;25.50;;;;;15.69;54.64;101559.13;4999345;28;46357;-65
2022/04/14 01:27:04;;;;;;;;;24.50;22.50;;;;;15.67;54.52;101563.56;4999301;28;45270;-65
2022/04/14 01:29:30;;;;;;;;;29.00;26.00;;;;;15.61;54.56;101559.31;4999639;28;45310;-65
2022/04/14 01:31:56;;;;;;;;;37.00;31.50;;;;;15.63;54.90;101560.13;4998950;28;45198;-65
2022/04/14 01:34:22;;;;;;;;;30.50;27.75;;;;;15.62;54.57;101568.09;4999420;28;46277;-65
2022/04/14 01:36:48;;;;;;;;;31.00;27.50;;;;;15.55;54.89;101559.44;4999203;28;45423;-65
2022/04/14 01:39:14;;;;;;;;;28.25;27.00;;;;;15.55;54.99;101570.88;5000961;28;45281;-65
2022/04/14 01:41:41;;;;;;;;;28.75;28.25;;;;;15.51;54.85;101565.69;5002787;28;45393;-65
2022/04/14 01:44:07;;;;;;;;;30.25;26.50;;;;;15.51;54.93;101582.47;5001437;28;47185;-65
2022/04/14 01:46:33;;;;;;;;;27.50;24.00;;;;;15.48;54.79;101586.94;5002218;28;45313;-65
2022/04/14 01:48:59;;;;;;;;;27.25;27.00;;;;;15.46;54.62;101580.81;5002899;28;45381;-65
2022/04/14 01:51:26;;;;;;;;;22.25;21.75;;;;;15.42;55.09;101582.63;5002518;28;45489;-65
2022/04/14 01:53:51;;;;;;;;;22.75;22.00;;;;;15.40;54.86;101580.03;5001219;28;47347;-65
2022/04/14 01:56:18;;;;;;;;;21.75;18.00;;;;;15.39;55.20;101574.78;5002299;28;45493;-65
2022/04/14 01:58:43;;;;;;;;;21.25;20.50;;;;;15.37;54.99;101580.13;5002717;28;45293;-65
2022/04/14 02:01:09;;;;;;;;;1.25;1.00;;;;;15.34;54.84;101572.22;5002313;28;45206;-65
2022/04/14 02:03:34;;;;;;;;;22.25;19.75;;;;;15.35;55.23;101573.09;5002610;28;45222;-65
2022/04/14 02:05:59;;;;;;;;;17.75;17.50;;;;;15.32;54.91;101573.16;5001459;28;45470;-65
2022/04/14 02:08:25;;;;;;;;;20.50;20.50;;;;;15.33;55.12;101572.25;5002929;28;45431;-65
2022/04/14 02:10:50;;;;;;;;;26.25;23.75;;;;;15.31;54.83;101572.28;5000922;28;46020;-65
2022/04/14 02:13:15;;;;;;;;;20.00;18.00;;;;;15.31;54.88;101568.75;5002397;28;46237;-65
2022/04/14 02:15:41;;;;;;;;;24.50;22.00;;;;;15.30;55.19;101570.53;5001915;28;45258;-64
2022/04/14 02:18:06;;;;;;;;;20.00;20.00;;;;;15.26;55.28;101559.13;5002656;28;45381;-65
2022/04/14 02:20:32;;;;;;;;;19.75;19.50;;;;;15.28;55.17;101557.34;5000626;28;45502;-64
2022/04/14 02:22:57;;;;;;;;;20.50;18.00;;;;;15.28;55.31;101556.44;5001279;28;45978;-65
2022/04/14 02:25:22;;;;;;;;;19.00;15.75;;;;;15.26;55.44;101552.97;4986475;28;45350;-62
2022/04/14 02:27:48;;;;;;;;;18.00;18.00;;;;;15.27;55.17;101552.09;5001393;28;45327;-62
2022/04/14 02:30:13;;;;;;;;;17.00;15.50;;;;;15.27;55.54;101555.59;5000626;28;45587;-62
2022/04/14 02:32:38;;;;;;;;;19.25;16.50;;;;;15.25;55.13;101551.22;5000932;28;45345;-64
2022/04/14 02:35:04;;;;;;;;;20.75;19.25;;;;;15.24;55.62;101550.38;5000963;28;45588;-65
2022/04/14 02:37:30;;;;;;;;;18.50;15.75;;;;;15.24;55.32;101553.03;5001027;28;45403;-63
2022/04/14 02:39:55;;;;;;;;;19.00;15.75;;;;;15.22;55.11;101551.28;4999419;28;45369;-63
2022/04/14 02:42:21;;;;;;;;;14.50;14.50;;;;;15.22;55.63;101552.16;5000854;28;46013;-63
2022/04/14 02:44:46;;;;;;;;;21.00;18.50;;;;;15.21;55.23;101553.06;5000723;28;45339;-64
2022/04/14 02:47:12;;;;;;;;;18.00;17.50;;;;;15.21;55.12;101560.16;5000783;28;45656;-62
2022/04/14 02:49:37;;;;;;;;;20.50;17.75;;;;;15.20;55.29;101559.25;5000557;28;45383;-63
2022/04/14 02:52:02;;;;;;;;;15.00;13.00;;;;;15.18;55.56;101554.91;4995809;28;48758;-63
2022/04/14 02:54:28;;;;;;;;;17.00;15.75;;;;;15.17;55.78;101567.28;4993657;28;45192;-65
2022/04/14 02:56:53;;;;;;;;;15.50;15.00;;;;;15.14;55.51;101569.97;5000351;28;45341;-65
2022/04/14 02:59:18;;;;;;;;;15.00;15.00;;;;;15.13;55.34;101567.38;4992205;28;45590;-63
2022/04/14 03:01:44;;;;;;;;;21.50;18.50;;;;;15.10;55.40;101563.88;4979501;28;48041;-63
2022/04/14 03:04:09;;;;;;;;;20.25;16.25;;;;;15.08;55.29;101570.09;4993572;28;45177;-65
2022/04/14 03:06:34;;;;;;;;;14.75;13.50;;;;;15.07;55.57;101563.94;5000182;28;45337;-63
2022/04/14 03:09:00;;;;;;;;;17.50;16.50;;;;;15.05;55.99;101570.16;5000214;28;45561;-63
2022/04/14 03:11:25;;;;;;;;;12.00;12.00;;;;;15.04;55.44;101577.25;5000109;28;45369;-63
2022/04/14 03:13:50;;;;;;;;;11.50;11.50;;;;;15.00;55.77;101572.91;5000094;28;45380;-63
2022/04/14 03:16:16;;;;;;;;;15.25;15.00;;;;;14.99;55.95;101568.50;5000309;28;45254;-63
2022/04/14 03:18:41;;;;;;;;;18.50;15.75;;;;;14.97;55.54;101564.13;5000009;28;45668;-63
2022/04/14 03:21:07;;;;;;;;;16.00;16.00;;;;;15.00;55.59;101578.19;4959819;28;1163005;-63
2022/04/14 03:23:32;;;;;;;;;14.75;14.75;;;;;15.00;55.61;101574.69;4999905;28;45324;-63
2022/04/14 03:25:57;;;;;;;;;13.75;13.50;;;;;15.00;56.07;101575.53;4999853;28;45373;-63
2022/04/14 03:28:23;;;;;;;;;14.25;13.75;;;;;15.00;55.63;101572.91;5001164;28;45326;-63
2022/04/14 03:30:48;;;;;;;;;17.75;17.00;;;;;15.01;55.92;101573.78;5000975;28;45364;-63
2022/04/14 03:33:13;;;;;;;;;16.50;15.00;;;;;15.01;56.11;101573.78;5001171;28;45293;-63
2022/04/14 03:35:39;;;;;;;;;19.25;17.25;;;;;14.99;55.99;101565.00;5001256;28;45352;-63
2022/04/14 03:38:04;;;;;;;;;18.25;17.00;;;;;15.00;55.84;101572.03;5001158;28;45333;-63
2022/04/14 03:40:29;;;;;;;;;20.25;18.00;;;;;14.99;55.75;101576.44;5001081;28;45230;-63
2022/04/14 03:42:55;;;;;;;;;17.50;16.75;;;;;14.98;55.65;101576.47;5000953;28;45244;-63
2022/04/14 03:45:21;;;;;;;;;17.25;17.25;;;;;14.95;56.21;101582.69;5001035;28;45306;-64
2022/04/14 03:47:46;;;;;;;;;19.75;15.75;;;;;14.95;55.87;101585.34;5000830;28;45221;-64
2022/04/14 03:50:12;;;;;;;;;19.75;17.00;;;;;14.94;56.05;101584.50;5000880;28;45319;-64
2022/04/14 03:52:37;;;;;;;;;21.00;17.00;;;;;14.93;55.87;101593.31;5000601;28;45235;-63
2022/04/14 03:55:03;;;;;;;;;21.75;20.75;;;;;14.92;56.27;101583.63;5000728;28;45232;-63
2022/04/14 03:57:28;;;;;;;;;21.75;19.25;;;;;14.92;55.84;101580.13;4995730;28;45475;-63
2022/04/14 03:59:53;;;;;;;;;16.75;16.75;;;;;14.91;55.90;101581.03;5009220;28;47344;-63
2022/04/14 04:02:19;;;;;;;;;23.25;16.75;;;;;14.89;55.67;101583.72;4991207;28;45186;-65
2022/04/14 04:04:44;;;;;;;;;18.50;17.75;;;;;14.89;56.20;101580.16;5001214;28;45425;-63
2022/04/14 04:07:10;;;;;;;;;19.75;19.00;;;;;14.87;55.96;101576.69;5000653;28;45298;-65
2022/04/14 04:09:36;;;;;;;;;21.50;20.50;;;;;14.85;55.92;101583.78;5000332;28;46294;-65
2022/04/14 04:12:02;;;;;;;;;18.75;18.25;;;;;14.83;56.07;101597.06;4989422;28;45360;-64
2022/04/14 04:14:27;;;;;;;;;26.75;24.50;;;;;14.82;56.28;101594.41;4998519;28;45373;-64
2022/04/14 04:16:52;;;;;;;;;21.50;21.00;;;;;14.81;55.90;101598.84;5000391;28;45479;-66
2022/04/14 04:19:18;;;;;;;;;30.50;29.00;;;;;14.78;55.97;101593.63;5000224;28;45265;-65
2022/04/14 04:21:43;;;;;;;;;26.25;19.50;;;;;14.79;55.80;101595.34;5000195;28;45237;-64
2022/04/14 04:24:08;;;;;;;;;21.25;19.00;;;;;14.75;55.89;101591.91;5000235;28;45298;-68
2022/04/14 04:26:34;;;;;;;;;22.00;19.50;;;;;14.76;56.15;101596.25;5000398;28;45451;-64
2022/04/14 04:28:59;;;;;;;;;24.75;21.50;;;;;14.75;55.75;101597.19;4998751;28;46909;-65
2022/04/14 04:31:25;;;;;;;;;18.25;16.00;;;;;14.71;55.96;101587.53;4998905;28;45485;-65
2022/04/14 04:33:51;;;;;;;;;24.00;21.75;;;;;14.73;55.87;101595.44;5000197;28;45606;-65
2022/04/14 04:36:19;;;;;;;;;21.75;18.75;;;;;14.72;55.75;101593.72;5000314;28;45306;-65
2022/04/14 04:38:45;;;;;;;;;21.00;19.25;;;;;14.71;56.23;101599.91;4980240;28;47459;-65
2022/04/14 04:41:10;;;;;;;;;24.75;23.00;;;;;14.67;56.04;101590.28;4992317;28;45329;-65
2022/04/14 04:43:36;;;;;;;;;19.25;16.00;;;;;14.67;55.97;101593.81;5000084;28;45605;-65
2022/04/14 04:46:01;;;;;;;;;21.00;21.00;;;;;14.66;56.17;101593.84;4999732;28;45352;-65
2022/04/14 04:48:26;;;;;;;;;18.50;17.50;;;;;14.65;56.21;101592.09;4999771;28;46289;-65
2022/04/14 04:50:52;;;;;;;;;20.50;20.50;;;;;14.64;56.14;101599.13;4998583;28;45402;-65
2022/04/14 04:53:18;;;;;;;;;22.75;19.50;;;;;14.61;56.48;101593.88;5000016;28;45320;-65
2022/04/14 04:55:43;;;;;;;;;20.00;20.00;;;;;14.61;56.42;101596.50;4999994;28;45309;-65
2022/04/14 04:58:08;;;;;;;;;30.25;26.50;;;;;14.58;56.45;101605.38;4992352;28;45333;-65
2022/04/14 05:00:34;;;;;;;;;20.00;18.00;;;;;14.54;56.62;101603.69;4999781;28;45313;-65
2022/04/14 05:02:59;;;;;;;;;17.00;16.25;;;;;14.53;56.33;101609.03;4999977;28;45594;-65
2022/04/14 05:05:25;;;;;;;;;19.50;18.25;;;;;14.51;56.51;101622.25;4999614;28;45305;-65
2022/04/14 05:07:50;;;;;;;;;25.50;21.00;;;;;14.50;55.90;101633.72;4999562;28;46226;-65
2022/04/14 05:10:17;;;;;;;;;17.50;16.00;;;;;14.46;56.13;101630.28;4999744;28;45305;-65
2022/04/14 05:12:42;;;;;;;;;21.75;20.75;;;;;14.45;56.31;101625.88;4999753;28;45227;-65
2022/04/14 05:15:08;;;;;;;;;17.50;17.25;;;;;14.41;56.51;101628.59;5002191;28;45397;-67
2022/04/14 05:17:33;;;;;;;;;20.50;18.50;;;;;14.42;56.43;101625.91;5003040;28;45413;-65
2022/04/14 05:19:59;;;;;;;;;20.25;17.25;;;;;14.41;56.68;101626.81;4992987;28;45298;-65
2022/04/14 05:22:24;;;;;;;;;20.00;19.25;;;;;14.39;56.53;101625.06;5000235;28;45303;-65
2022/04/14 05:24:49;;;;;;;;;18.50;17.50;;;;;14.39;56.30;101628.63;5003103;28;45342;-65
2022/04/14 05:27:15;;;;;;;;;23.00;19.50;;;;;14.38;56.21;101631.28;4998275;28;46186;-66
2022/04/14 05:29:40;;;;;;;;;18.25;16.50;;;;;14.35;56.66;101632.22;4993612;28;45263;-66
2022/04/14 05:32:06;;;;;;;;;25.00;19.75;;;;;14.35;56.65;101626.94;5001504;28;45443;-65
2022/04/14 05:34:32;;;;;;;;;22.25;21.25;;;;;14.35;56.22;101637.50;5003205;28;45395;-66
2022/04/14 05:36:58;;;;;;;;;19.50;18.50;;;;;14.33;56.89;101635.78;5001319;28;47086;-65
2022/04/14 05:39:23;;;;;;;;;20.00;20.00;;;;;14.33;56.06;101638.44;5002684;28;45318;-65
2022/04/14 05:41:48;;;;;;;;;21.75;20.25;;;;;14.32;56.85;101636.69;5001566;28;45304;-65
2022/04/14 05:44:14;;;;;;;;;25.00;22.25;;;;;14.32;56.19;101641.97;5002800;28;45255;-65
2022/04/14 05:46:39;;;;;;;;;22.00;21.75;;;;;14.29;56.70;101638.47;5001037;28;47991;-66
2022/04/14 05:49:05;;;;;;;;;23.00;21.50;;;;;14.30;56.44;101641.97;5003088;28;45318;-64
2022/04/14 05:51:30;;;;;;;;;22.25;20.50;;;;;14.28;56.66;101649.06;5002326;28;45590;-64
2022/04/14 05:53:55;;;;;;;;;21.50;20.25;;;;;14.28;56.29;101649.91;5002705;28;45426;-65
2022/04/14 05:56:21;;;;;;;;;18.75;18.75;;;;;14.25;56.42;101650.00;5001355;28;46316;-66
2022/04/14 05:58:46;;;;;;;;;25.25;22.25;;;;;14.28;56.39;101654.34;4994237;28;45308;-67
2022/04/14 06:01:12;;;;;;;;;17.25;14.00;;;;;14.25;56.61;101650.00;5002240;28;45384;-67
2022/04/14 06:03:41;;;;;;;;;23.75;21.50;;;;;14.28;56.80;101651.72;5002615;28;45208;-67
2022/04/14 06:06:08;;;;;;;;;19.75;19.75;;;;;14.28;56.56;101655.22;5001936;28;47012;-68
2022/04/14 06:08:33;;;;;;;;;21.75;20.00;;;;;14.24;56.53;101653.53;5002442;28;45692;-68
2022/04/14 06:10:58;;;;;;;;;24.00;20.00;;;;;14.26;56.97;101657.03;5002139;28;45384;-63
2022/04/14 06:13:24;;;;;;;;;24.00;21.00;;;;;14.26;56.66;101654.38;5014454;28;45582;-63
2022/04/14 06:15:49;;;;;;;;;22.75;21.50;;;;;14.29;56.70;101654.31;5000501;28;46074;-62
2022/04/14 06:18:14;;;;;;;;;26.75;24.25;;;;;14.24;57.04;101650.88;5002300;28;45384;-62
2022/04/14 06:20:40;;;;;;;;;25.00;22.00;;;;;14.30;56.92;101652.53;5002001;28;45307;-63
2022/04/14 06:23:05;;;;;;;;;24.75;21.25;;;;;14.33;56.89;101654.28;5002372;28;45567;-64
2022/04/14 06:25:30;;;;;;;;;28.00;25.00;;;;;14.33;57.19;101652.50;4986891;28;46764;-63
2022/04/14 06:27:56;;;;;;;;;23.00;21.75;;;;;14.35;56.79;101657.75;5002052;28;45228;-63
2022/04/14 06:30:22;;;;;;;;;23.25;21.00;;;;;14.36;57.26;101659.50;5000665;28;45346;-63
2022/04/14 06:33:15;;;;;;;;;33.75;28.25;;;;;14.41;56.95;101663.81;5002046;28;45507;-64
2022/04/14 06:35:41;;;;;;;;;31.25;28.25;;;;;14.41;57.00;101660.31;4986122;28;45654;-63
2022/04/14 06:38:06;;;;;;;;;13.00;12.75;;;;;14.43;56.84;101663.81;5000550;28;45317;-63
2022/04/14 06:40:32;;;;;;;;;29.50;26.75;;;;;14.47;57.17;101655.78;5002034;28;45420;-63
2022/04/14 06:42:57;;;;;;;;;22.25;19.00;;;;;14.51;57.35;101667.19;5001837;28;45570;-63
2022/04/14 06:45:22;;;;;;;;;28.00;24.25;;;;;14.46;57.33;101647.88;5001679;28;45242;-63
2022/04/14 06:47:48;;;;;;;;;28.25;21.75;;;;;14.58;56.91;101665.34;5001523;28;45209;-63
2022/04/14 06:50:13;;;;;;;;;24.50;24.25;;;;;14.60;57.30;101660.88;5000599;28;45445;-63
2022/04/14 06:52:39;;;;;;;;;29.50;28.50;;;;;14.63;57.16;101661.72;4991678;28;45226;-66
2022/04/14 06:55:06;;;;;;;;;34.50;29.75;;;;;14.65;57.03;101661.72;4999416;28;46925;-65
2022/04/14 06:57:31;;;;;;;;;34.25;30.00;;;;;14.69;57.15;101673.13;5001614;28;45349;-67
2022/04/14 06:59:57;;;;;;;;;34.00;30.50;;;;;14.73;57.25;101672.16;5001176;28;45658;-66
2022/04/14 07:02:22;;;;;;;;;30.75;29.25;;;;;14.77;57.11;101684.47;5001738;28;45270;-66
2022/04/14 07:04:48;;;;;;;;;29.00;27.25;;;;;14.77;57.08;101677.38;4998693;28;45467;-66
2022/04/14 07:07:14;;;;;;;;;23.50;23.50;;;;;14.86;57.03;101683.44;5000374;28;45346;-66
2022/04/14 07:09:39;;;;;;;;;31.00;27.25;;;;;14.91;57.06;101685.09;5000184;28;45386;-66
2022/04/14 07:12:06;;;;;;;;;34.00;28.50;;;;;14.99;57.07;101687.59;5000265;28;45420;-66
2022/04/14 07:14:32;;;;;;;;;31.50;29.75;;;;;15.08;57.36;101689.22;5001460;28;47099;-67
2022/04/14 07:16:58;;;;;;;;;30.50;27.75;;;;;15.18;57.56;101692.56;4999782;28;45176;-66
2022/04/14 07:19:24;;;;;;;;;30.00;27.50;;;;;15.24;57.61;101696.00;5001640;28;45253;-66
2022/04/14 07:21:50;;;;;;;;;38.25;29.75;;;;;15.33;57.46;101696.72;5001128;28;45202;-66
2022/04/14 07:24:16;;;;;;;;;30.00;26.50;;;;;15.42;57.61;101708.00;5000748;28;46996;-66
2022/04/14 07:26:41;;;;;;;;;32.50;31.50;;;;;15.52;57.13;101710.47;5001267;28;45339;-66
2022/04/14 07:29:06;;;;;;;;;34.00;32.50;;;;;15.60;57.05;101706.78;5001313;28;45389;-66
2022/04/14 07:31:32;;;;;;;;;24.75;24.25;;;;;15.72;57.37;101704.78;5000973;28;45409;-67
2022/04/14 07:34:00;;;;;;;;;31.50;29.00;;;;;15.77;57.46;101703.78;5001079;28;46200;-66
2022/04/14 07:36:26;;;;;;;;;32.75;27.75;;;;;15.93;57.30;101714.09;5000192;28;45228;-66
2022/04/14 07:38:52;;;;;;;;;33.50;32.75;;;;;16.03;57.28;101706.81;5001063;28;45250;-66
2022/04/14 07:41:17;;;;;;;;;33.75;32.25;;;;;16.14;57.50;101712.78;5000979;28;45400;-65
2022/04/14 07:43:43;;;;;;;;;37.50;33.00;;;;;16.22;57.24;101715.25;5000874;28;46473;-65
2022/04/14 07:46:08;;;;;;;;;37.25;34.50;;;;;16.29;57.23;101713.31;5000805;28;45259;-65
2022/04/14 07:48:33;;;;;;;;;31.75;31.25;;;;;16.38;57.40;101715.78;5001068;28;45818;-65
2022/04/14 07:51:01;;;;;;;;;38.25;33.50;;;;;16.47;57.18;101714.69;5001015;28;45202;-64
2022/04/14 07:53:26;;;;;;;;;32.50;30.50;;;;;16.54;57.12;101713.63;5000665;28;45352;-64
2022/04/14 07:55:52;;;;;;;;;32.75;31.00;;;;;16.61;57.48;101715.22;5000858;28;45313;-65
2022/04/14 07:58:17;;;;;;;;;36.50;32.25;;;;;16.71;57.11;101718.53;5000810;28;45255;-65
2022/04/14 08:00:43;;;;;;;;;34.75;28.75;;;;;16.79;57.16;101719.22;4999240;28;45488;-65
2022/04/14 08:03:09;;;;;;;;;31.75;29.50;;;;;16.84;56.82;101716.44;5000805;28;45931;-64
2022/04/14 08:05:37;;;;;;;;;36.00;32.75;;;;;16.95;56.94;101716.22;5000603;28;45552;-65
2022/04/14 08:08:04;;;;;;;;;40.50;35.25;;;;;17.04;57.02;101715.97;5000828;28;45298;-64
2022/04/14 08:10:30;;;;;;;;;32.75;31.25;;;;;17.14;56.95;101720.13;5000345;28;45251;-65
2022/04/14 08:12:56;;;;;;;;;35.00;31.50;;;;;17.25;57.00;101721.66;5000543;28;45417;-65
2022/04/14 08:15:22;;;;;;;;;28.25;26.75;;;;;17.36;56.82;101722.22;5000137;28;45361;-65
2022/04/14 08:17:47;;;;;;;;;30.50;26.50;;;;;17.47;56.89;101724.56;5000847;28;45438;-64
2022/04/14 08:20:14;;;;;;;;;26.00;25.50;;;;;17.57;56.71;101719.88;5000268;28;45277;-64
2022/04/14 08:22:50;;;;;;;;;31.75;27.25;;;;;17.68;56.16;101728.44;5000112;28;46038;-65
2022/04/14 08:25:19;;;;;;;;;28.25;26.25;;;;;17.78;56.57;101718.41;5000018;28;45291;-64
2022/04/14 08:27:46;;;;;;;;;28.00;26.75;;;;;17.85;56.52;101726.16;4999191;28;45271;-65
2022/04/14 08:30:12;;;;;;;;;24.00;23.00;;;;;17.92;56.30;101726.84;4999738;28;45389;-64
2022/04/14 08:32:38;;;;;;;;;28.50;27.50;;;;;17.97;56.21;101718.78;4998944;28;48195;-64
2022/04/14 08:35:04;;;;;;;;;21.25;21.25;;;;;17.98;56.10;101718.72;5000168;28;45466;-64
2022/04/14 08:37:29;;;;;;;;;22.75;22.75;;;;;18.05;56.17;101723.84;4999136;28;45471;-65
2022/04/14 08:39:56;;;;;;;;;25.50;22.75;;;;;18.09;56.00;101722.88;4999878;28;45316;-64
2022/04/14 08:42:26;;;;;;;;;22.25;20.25;;;;;18.13;55.87;101721.84;5000205;28;46112;-64
2022/04/14 08:45:02;;;;;;;;;25.25;24.75;;;;;18.14;55.65;101726.25;4999602;28;45278;-64
2022/04/14 08:47:29;;;;;;;;;29.00;27.25;;;;;18.17;55.53;101719.03;4999905;28;45274;-64
2022/04/14 08:49:56;;;;;;;;;20.75;20.00;;;;;18.19;55.35;101714.53;4999921;28;45544;-64
2022/04/14 08:52:22;;;;;;;;;31.25;25.00;;;;;18.23;55.69;101715.31;4999748;28;46113;-64
2022/04/14 08:54:49;;;;;;;;;29.50;26.50;;;;;18.26;55.79;101714.34;4999630;28;45298;-64
2022/04/14 08:57:15;;;;;;;;;25.50;23.50;;;;;18.31;55.69;101715.97;5000234;28;45239;-64
2022/04/14 08:59:44;;;;;;;;;29.00;28.00;;;;;18.35;55.30;101717.59;4999766;28;45298;-64
2022/04/14 09:02:14;;;;;;;;;21.50;21.00;;;;;18.40;55.10;101717.47;4999819;28;46194;-64
2022/04/14 09:04:42;;;;;;;;;25.25;23.50;;;;;18.43;55.19;101714.69;4999771;28;45497;-64
2022/04/14 09:07:08;;;;;;;;;20.25;18.50;;;;;18.47;55.36;101723.47;4999817;28;45420;-64
2022/04/14 09:09:34;;;;;;;;;22.50;22.50;;;;;18.51;55.02;101712.69;4999835;28;45416;-64
2022/04/14 09:11:59;;;;;;;;;22.25;20.50;;;;;18.54;54.93;101719.69;4999483;28;45604;-64
2022/04/14 09:14:25;;;;;;;;;24.00;22.00;;;;;18.61;55.03;101710.56;4999971;28;45479;-64
2022/04/14 09:16:51;;;;;;;;;21.50;18.75;;;;;18.67;55.12;101717.50;4999594;28;45388;-64
2022/04/14 09:19:16;;;;;;;;;23.25;20.00;;;;;18.71;55.11;101713.81;4999809;28;45230;-64
2022/04/14 09:22:02;;;;;;;;;27.75;23.75;;;;;18.80;55.13;101723.28;4999491;28;46189;-64
2022/04/14 09:24:47;;;;;;;;;22.25;20.25;;;;;18.89;54.90;101727.44;4999633;28;45359;-64
2022/04/14 09:27:34;;;;;;;;;23.25;21.75;;;;;18.96;55.03;101716.53;4999523;28;45224;-64
2022/04/14 09:30:03;;;;;;;;;21.00;19.25;;;;;19.05;55.04;101714.50;4999123;28;45229;-64
2022/04/14 09:32:42;;;;;;;;;23.00;19.75;;;;;19.14;54.87;101717.72;4999405;28;46228;-64
2022/04/14 09:35:21;;;;;;;;;27.75;21.00;;;;;19.25;54.82;101717.31;4999346;28;45183;-64
2022/04/14 09:38:02;;;;;;;;;23.75;22.75;;;;;19.32;54.72;101720.66;4999536;28;45258;-65
2022/04/14 09:40:35;;;;;;;;;26.75;22.00;;;;;19.46;54.34;101728.16;4999252;28;45541;-65
2022/04/14 09:43:00;;;;;;;;;26.25;25.50;;;;;19.56;54.50;101723.34;4999232;28;45361;-65
2022/04/14 09:45:28;;;;;;;;;26.75;23.25;;;;;19.67;54.16;101723.81;4998953;28;45216;-65
2022/04/14 09:47:55;;;;;;;;;23.50;22.00;;;;;19.77;53.81;101722.59;4999522;28;45189;-65
2022/04/14 09:50:26;;;;;;;;;18.75;17.75;;;;;19.88;54.27;101719.53;4998009;28;45381;-66
2022/04/14 09:53:01;;;;;;;;;18.75;17.00;;;;;20.00;53.82;101714.66;4997636;28;45372;-66
2022/04/14 09:55:26;;;;;;;;;17.25;16.25;;;;;20.08;54.14;101708.09;4999087;28;45272;-66
2022/04/14 09:58:05;;;;;;;;;19.00;16.25;;;;;20.19;53.54;101717.47;4999133;28;45435;-66
2022/04/14 10:00:37;;;;;;;;;16.50;15.00;;;;;20.27;53.98;101712.72;4999532;28;46231;-67
2022/04/14 10:03:22;;;;;;;;;18.50;15.75;;;;;20.38;53.39;101712.28;5017844;28;48468;-66
2022/04/14 10:05:51;;;;;;;;;15.75;13.75;;;;;20.46;53.78;101711.06;5002384;28;45191;-66
2022/04/14 10:08:17;;;;;;;;;13.75;12.25;;;;;20.57;53.36;101717.75;5002587;28;45308;-66
2022/04/14 10:10:45;;;;;;;;;19.50;19.50;;;;;20.70;53.12;101718.97;5002116;28;45344;-65
2022/04/14 10:13:14;;;;;;;;;15.25;15.25;;;;;20.86;53.16;101713.91;5002446;28;45345;-65
2022/04/14 10:15:42;;;;;;;;;17.00;17.00;;;;;21.04;52.85;101717.59;5001928;28;45469;-65
2022/04/14 10:18:10;;;;;;;;;12.00;12.00;;;;;21.20;53.22;101716.94;5002544;28;45332;-65
2022/04/14 10:20:38;;;;;;;;;12.75;10.00;;;;;21.32;52.67;101719.06;5001758;28;45226;-65
2022/04/14 10:23:04;;;;;;;;;10.50;10.00;;;;;21.40;52.95;101716.06;5002265;28;45266;-65
2022/04/14 10:25:30;;;;;;;;;20.00;14.50;;;;;21.51;52.56;101716.44;5001950;28;45211;-64
2022/04/14 10:27:59;;;;;;;;;18.25;17.00;;;;;21.62;52.18;101709.78;5002429;28;45314;-65
2022/04/14 10:30:26;;;;;;;;;11.25;9.50;;;;;21.75;52.01;101706.47;5001860;28;45411;-65
2022/04/14 10:32:56;;;;;;;;;7.25;7.25;;;;;21.85;52.14;101706.06;5002153;28;45467;-65
2022/04/14 10:35:26;;;;;;;;;10.50;9.25;;;;;21.93;51.99;101706.56;5002085;28;45353;-65
2022/04/14 10:38:17;;;;;;;;;9.50;9.50;;;;;21.99;52.06;101710.75;5000878;28;45200;-65
2022/04/14 10:40:48;;;;;;;;;8.00;8.00;;;;;22.00;51.30;101699.97;5001967;28;45427;-64
2022/04/14 10:43:18;;;;;;;;;11.00;8.25;;;;;22.05;51.60;101691.75;5001652;28;46336;-65
2022/04/14 10:45:49;;;;;;;;;8.00;8.00;;;;;22.12;51.52;101687.81;5000177;28;45538;-65
2022/04/14 10:48:36;;;;;;;;;9.50;6.25;;;;;22.16;51.57;101693.88;5002057;28;45247;-66
2022/04/14 10:51:27;;;;;;;;;7.75;6.25;;;;;22.15;51.13;101695.72;5000311;28;45401;-65
2022/04/14 10:54:10;;;;;;;;;7.75;7.75;;;;;22.17;51.21;101692.94;5001609;28;45468;-64
2022/04/14 10:56:42;;;;;;;;;7.00;7.00;;;;;22.21;50.91;101691.84;5001793;28;45234;-65
2022/04/14 10:59:12;;;;;;;;;7.75;7.00;;;;;22.38;51.49;101693.75;5001582;28;45357;-66
2022/04/14 11:01:55;;;;;;;;;2.75;1.75;;;;;22.69;51.74;101690.41;5001453;28;45694;-65
2022/04/14 11:04:57;;;;;;;;;4.75;4.75;;;;;23.09;51.67;101684.81;5001355;28;45267;-67
2022/04/14 11:07:23;;;;;;;;;5.00;4.50;;;;;23.61;51.85;101688.38;4999712;28;45415;-67
2022/04/14 11:09:55;;;;;;;;;6.00;6.00;;;;;24.19;52.21;101684.31;5001652;28;45325;-65